KMWL/MWL METAR and TAF weather

Enter ICAO airport designator
Station Type Date Time Source
KMWL METAR 2021/04/18 01:53 UTC NOAA

KMWL 180153Z AUTO 34007KT 10SM CLR 12/04 A3012 RMK AO2 SLP197 T01170044


Station Type Date Time Source
KMWL Decoded METAR 2021/04/18 01:53 UTC NOAA

MINERAL WELLS AIRPORT, TX, United States (KMWL) 32-47N 098-04W 284M
Apr 17, 2021 - 09:53 PM EDT / 2021.04.18 0153 UTC
Wind: from the NNW (340 degrees) at 8 MPH (7 KT):0
Visibility: 10 mile(s):0
Sky conditions: clear
Temperature: 53.1 F (11.7 C)
Dew Point: 39.9 F (4.4 C)
Relative Humidity: 60%
Pressure (altimeter): 30.12 in. Hg (1019 hPa)
ob: KMWL 180153Z AUTO 34007KT 10SM CLR 12/04 A3012 RMK AO2 SLP197 T01170044
cycle: 2

Station Type Date Time Source
KMWL TAF UTC NOAA

Error!

Example: see airport list